Terminal Aerodrome Forecast
Issued by NWS

Home | Current Version | Previous Version | Text Only | Print | Product List | Glossary Off
Versions: 1 2 3 4 5 6 7 8 9 10 11 12 13 14 15 16 17

000
FTUS43 KICT 190500
TAFHUT
TAF
KHUT 190520Z 1906/2006 20006KT P6SM SCT200
     FM190700 32015G25KT P6SM SCT200
     FM190900 17007KT P6SM SKC
     FM191900 19014KT P6SM SCT250=

USA.gov is the U.S. government's official web portal to all federal, state and local government web resources and services.